Farewell Spit, New Zealand
Current Conditions -  °F | °C
As of 4:00 AM on Friday 19 Dec 2014 (Local Time) from NZWN Reporting Station
Broken Clouds Broken Clouds  
Wind Chill: 59°   Ceiling: 1100
Heat Index: 59°   Visibility: 4mi
Dew Point: 59°   Wind: 20mph
Humidity: 100%   Direction: 360°N
Pressure: 29.91"   Gusts: NA
Location:  40.51°S, 172.87°E
Report Text: NZWN 181600Z AUTO 36017KT 7000 BKN011/// 15/15 Q1013 TEMPO9999
Loading
Personal Weather Stations






























Interactive Weather Map New forecast layout! Learn more

10-Day Weather Forecast

Advertisements
Track Severe Weather on mobile